Country
Station

 

Weather  for  Pusan/Kimhae International Airport  -  Korea (Republic of)    Korea (Republic of)

  
22 °C (72 °F)
    
 
 

Current METAR for Pusan/Kimhae International Airport is :

RKPK 171800Z 36004KT 9999 FEW040 22/17 Q1012 NOSIG

 

This is a report for Pusan/Kimhae International Airport - Korea (Republic of).
 
The report was made 50 minutes ago, at 18:00 UTC .
The wind was blowing at a speed of 2.1 meters per second (4.6 miles per hour) from north (360°).
 
The temperature was 22 °C (72 °F), with a dew-point at 17 °C (63 °F).
The temperature felt like 23 °C (74 °F).
 
The atmospheric pressure was 1012 hPa (29.88 inHg).
The relative humidity was 73.3%.
 
There were a few clouds at a height of 1219 meters (4000 feet).
 
The overall visibility was greater than 10 kilometers (6.2 miles).
 

 
 
 
 

Country :   A   B   C   D   E   F   G   H   I   J   K   L   M   N   O   P   Q   R   S   T   U   V   W   Y   Z

 

Site Info  |  Disclaimer  |  Credits  |  Privacy
Contact us  |  Add to favorites
© 2013-2018 METARs - All rights reserved